Time;durP1;ratioP1;P1;durP2;ratioP2;P2;SDS_P1;SDS_P2;PMS_P1;PMS_P2;Temp;Humidity;BMP_temperature;BMP_pressure;BME280_temperature;BME280_humidity;BME280_pressure;Samples;Min_cycle;Max_cycle;Signal;HPM_P1;HPM_P2
2023/11/15 00:01:34;;;;;;;0.50;0.20;;;8.50;99.90;;;;;;5005715;28;20108;-65
2023/11/15 00:04:00;;;;;;;0.10;0.03;;;8.50;99.90;;;;;;5004077;28;20046;-64
2023/11/15 00:06:25;;;;;;;0.90;0.22;;;8.50;99.90;;;;;;5009197;28;20111;-64
2023/11/15 00:08:52;;;;;;;0.95;0.15;;;8.50;99.90;;;;;;5000668;28;20038;-64
2023/11/15 00:11:18;;;;;;;1.00;0.20;;;8.50;99.90;;;;;;5005669;28;20042;-64
2023/11/15 00:13:50;;;;;;;0.65;0.17;;;8.60;99.90;;;;;;5038789;28;20325;-63
2023/11/15 00:16:17;;;;;;;0.00;0.00;;;8.60;99.90;;;;;;4998709;28;20069;-65
2023/11/15 00:18:42;;;;;;;0.75;0.30;;;8.60;99.90;;;;;;5004237;28;20042;-64
2023/11/15 00:21:09;;;;;;;0.03;0.03;;;8.60;99.90;;;;;;5000244;28;20077;-65
2023/11/15 00:23:35;;;;;;;4.43;0.52;;;8.60;99.90;;;;;;5006673;28;20130;-64
2023/11/15 00:26:00;;;;;;;0.35;0.05;;;8.60;99.90;;;;;;5002482;28;20061;-64
2023/11/15 00:28:26;;;;;;;0.47;0.03;;;8.60;99.90;;;;;;5032868;28;20042;-64
2023/11/15 00:30:52;;;;;;;0.30;0.28;;;8.60;99.90;;;;;;5006555;28;20124;-65
2023/11/15 00:33:18;;;;;;;0.35;0.20;;;8.60;99.90;;;;;;5031573;28;20038;-64
2023/11/15 00:35:44;;;;;;;0.22;0.00;;;8.60;99.90;;;;;;5009490;28;20037;-64
2023/11/15 00:38:11;;;;;;;2.72;0.47;;;8.60;99.90;;;;;;5003375;28;20099;-64
2023/11/15 00:40:37;;;;;;;0.00;0.00;;;8.60;99.90;;;;;;5034516;28;20045;-65
2023/11/15 00:43:04;;;;;;;0.10;0.00;;;8.60;99.90;;;;;;5004040;28;20042;-65
2023/11/15 00:45:30;;;;;;;0.80;0.20;;;8.70;99.90;;;;;;5000243;28;20038;-64
2023/11/15 00:47:56;;;;;;;0.03;0.00;;;8.70;99.90;;;;;;5035657;28;20172;-64
2023/11/15 00:50:22;;;;;;;0.82;0.22;;;8.70;99.90;;;;;;5035060;28;20066;-65
2023/11/15 00:52:47;;;;;;;1.13;0.20;;;8.70;99.90;;;;;;5002039;28;20049;-65
2023/11/15 00:55:13;;;;;;;2.78;0.15;;;8.70;99.90;;;;;;5004827;28;20056;-64
2023/11/15 00:57:39;;;;;;;0.15;0.08;;;8.80;99.90;;;;;;5002966;28;20057;-65
2023/11/15 01:00:26;;;;;;;1.02;0.10;;;8.70;99.90;;;;;;5007216;28;20037;-65
2023/11/15 01:03:01;;;;;;;0.00;0.00;;;8.80;99.90;;;;;;5005243;28;20034;-64
2023/11/15 01:05:28;;;;;;;0.20;0.10;;;8.80;99.90;;;;;;5001303;28;20048;-64
2023/11/15 01:07:54;;;;;;;1.00;0.10;;;8.80;99.90;;;;;;5003860;28;20091;-65
2023/11/15 01:10:20;;;;;;;0.00;0.00;;;8.80;99.90;;;;;;5006659;28;20049;-64
2023/11/15 01:12:46;;;;;;;0.05;0.00;;;8.80;99.90;;;;;;5008797;28;20037;-65
2023/11/15 01:15:12;;;;;;;0.00;0.00;;;8.80;99.90;;;;;;5005510;28;20065;-65
2023/11/15 01:17:38;;;;;;;0.10;0.00;;;8.80;99.90;;;;;;5010010;28;20041;-64
2023/11/15 01:20:06;;;;;;;0.00;0.00;;;8.80;99.90;;;;;;5007096;28;20064;-64
2023/11/15 01:22:32;;;;;;;1.45;0.13;;;8.80;99.90;;;;;;5006351;28;20077;-65
2023/11/15 01:24:58;;;;;;;0.22;0.10;;;8.80;99.90;;;;;;5011178;28;20045;-65
2023/11/15 01:27:25;;;;;;;0.10;0.00;;;8.80;99.90;;;;;;5036674;28;20038;-63
2023/11/15 01:29:51;;;;;;;3.03;0.75;;;8.90;99.90;;;;;;5011215;28;20509;-64
2023/11/15 01:32:17;;;;;;;0.10;0.10;;;8.80;99.90;;;;;;5005997;28;20046;-64
2023/11/15 01:34:43;;;;;;;0.15;0.00;;;8.90;99.90;;;;;;5012105;28;20041;-66
2023/11/15 01:37:09;;;;;;;0.00;0.00;;;8.80;99.90;;;;;;5036964;28;20046;-64
2023/11/15 01:39:34;;;;;;;0.00;0.00;;;8.80;99.90;;;;;;5037414;28;20046;-64
2023/11/15 01:42:00;;;;;;;0.00;0.00;;;8.80;99.90;;;;;;5004085;28;20032;-64
2023/11/15 01:44:27;;;;;;;1.30;0.25;;;8.80;99.90;;;;;;5000241;28;20054;-65
2023/11/15 01:46:53;;;;;;;1.75;0.00;;;8.80;99.90;;;;;;5007250;28;20493;-65
2023/11/15 01:49:21;;;;;;;0.00;0.00;;;8.80;99.90;;;;;;5007279;28;20044;-64
2023/11/15 01:51:48;;;;;;;0.00;0.00;;;8.80;99.90;;;;;;5008729;28;20040;-64
2023/11/15 01:54:16;;;;;;;0.00;0.00;;;8.80;99.90;;;;;;5004453;28;20038;-64
2023/11/15 01:56:42;;;;;;;0.00;0.00;;;8.70;99.90;;;;;;5003099;28;20042;-64
2023/11/15 01:59:08;;;;;;;0.00;0.00;;;8.80;99.90;;;;;;5005688;28;20034;-64
2023/11/15 02:01:35;;;;;;;0.13;0.00;;;8.80;99.90;;;;;;5007769;28;20042;-65
2023/11/15 02:04:01;;;;;;;0.20;0.20;;;8.70;99.90;;;;;;5004962;28;20037;-64
2023/11/15 02:06:31;;;;;;;2.20;0.10;;;8.80;99.90;;;;;;5006737;28;20482;-64
2023/11/15 02:08:58;;;;;;;0.25;0.10;;;8.70;99.90;;;;;;5006105;28;20045;-64
2023/11/15 02:11:27;;;;;;;0.77;0.10;;;8.70;99.90;;;;;;5005223;28;20052;-65
2023/11/15 02:13:56;;;;;;;0.38;0.28;;;8.70;99.90;;;;;;5037122;28;20743;-64
2023/11/15 02:16:22;;;;;;;0.40;0.00;;;8.70;99.90;;;;;;5005699;28;20344;-65
2023/11/15 02:18:48;;;;;;;0.08;0.00;;;8.70;99.90;;;;;;5000083;28;20038;-64
2023/11/15 02:21:15;;;;;;;0.00;0.00;;;8.70;99.90;;;;;;5000028;28;20045;-65
2023/11/15 02:23:43;;;;;;;0.30;0.10;;;8.70;99.90;;;;;;5001491;28;20458;-64
2023/11/15 02:26:09;;;;;;;0.17;0.00;;;8.70;99.90;;;;;;4991271;28;20048;-64
2023/11/15 02:28:35;;;;;;;1.08;0.40;;;8.70;99.90;;;;;;5006833;28;20487;-66
2023/11/15 02:31:00;;;;;;;1.35;0.25;;;8.60;99.90;;;;;;5003840;28;20108;-65
2023/11/15 02:33:26;;;;;;;0.30;0.15;;;8.60;99.90;;;;;;5004059;28;20043;-65
2023/11/15 02:35:52;;;;;;;0.30;0.10;;;8.70;99.90;;;;;;5005644;28;20053;-66
2023/11/15 02:38:18;;;;;;;2.75;0.40;;;8.70;99.90;;;;;;5034880;28;20481;-64
2023/11/15 02:40:43;;;;;;;0.20;0.10;;;8.70;99.90;;;;;;5000754;28;20072;-65
2023/11/15 02:43:09;;;;;;;0.10;0.00;;;8.70;99.90;;;;;;5004642;28;20030;-65
2023/11/15 02:45:35;;;;;;;0.98;0.10;;;8.70;99.90;;;;;;5010498;28;20129;-65
2023/11/15 02:48:00;;;;;;;0.30;0.13;;;8.70;99.90;;;;;;5002654;28;20411;-64
2023/11/15 02:50:32;;;;;;;0.17;0.00;;;8.70;99.90;;;;;;5010170;28;20029;-65
2023/11/15 02:52:58;;;;;;;0.32;0.20;;;8.70;99.90;;;;;;5004122;28;20045;-64
2023/11/15 02:55:24;;;;;;;0.03;0.03;;;8.70;99.90;;;;;;5003147;28;20058;-65
2023/11/15 02:57:50;;;;;;;0.30;0.10;;;8.50;99.90;;;;;;5007380;28;20042;-66
2023/11/15 03:00:19;;;;;;;0.28;0.10;;;8.60;99.90;;;;;;5009714;28;20426;-65
2023/11/15 03:02:44;;;;;;;1.25;0.20;;;8.50;99.90;;;;;;5006576;28;20132;-65
2023/11/15 03:05:10;;;;;;;1.88;0.28;;;8.50;99.90;;;;;;5005254;28;20113;-65
2023/11/15 03:07:36;;;;;;;0.00;0.00;;;8.40;99.90;;;;;;4999975;28;20069;-64
2023/11/15 03:10:04;;;;;;;0.10;0.00;;;8.30;99.90;;;;;;5001050;28;20042;-64
2023/11/15 03:12:31;;;;;;;0.30;0.20;;;8.30;99.90;;;;;;5008492;28;20039;-65
2023/11/15 03:14:57;;;;;;;0.35;0.00;;;8.20;99.90;;;;;;5005694;28;20042;-65
2023/11/15 03:17:23;;;;;;;0.10;0.10;;;8.20;99.90;;;;;;5004562;28;20032;-65
2023/11/15 03:19:49;;;;;;;0.00;0.00;;;8.10;99.90;;;;;;5000415;28;20049;-64
2023/11/15 03:22:15;;;;;;;0.00;0.00;;;8.10;99.90;;;;;;5003389;28;20040;-64
2023/11/15 03:24:45;;;;;;;0.82;0.45;;;8.00;99.90;;;;;;5002497;28;20038;-65
2023/11/15 03:27:11;;;;;;;0.30;0.30;;;8.00;99.90;;;;;;5007673;28;20104;-64
2023/11/15 03:29:37;;;;;;;0.00;0.00;;;7.90;99.90;;;;;;5003471;28;20097;-64
2023/11/15 03:32:02;;;;;;;0.05;0.03;;;8.00;99.90;;;;;;5039414;28;20046;-65
2023/11/15 03:34:33;;;;;;;0.00;0.00;;;7.90;99.90;;;;;;5005563;28;20041;-65
2023/11/15 03:36:59;;;;;;;0.00;0.00;;;7.90;99.90;;;;;;5000265;28;20082;-63
2023/11/15 03:39:26;;;;;;;0.22;0.00;;;7.80;99.90;;;;;;5001675;28;20439;-64
2023/11/15 03:41:51;;;;;;;0.00;0.00;;;7.80;99.90;;;;;;5008116;28;20065;-64
2023/11/15 03:44:17;;;;;;;0.05;0.00;;;7.80;99.90;;;;;;5007101;28;20138;-64
2023/11/15 03:46:43;;;;;;;0.10;0.10;;;7.80;99.90;;;;;;5002647;28;20712;-64
2023/11/15 03:49:09;;;;;;;0.13;0.03;;;7.70;99.90;;;;;;5003137;28;20049;-65
2023/11/15 03:51:34;;;;;;;0.65;0.35;;;7.70;99.90;;;;;;5002260;28;20089;-65
2023/11/15 03:54:00;;;;;;;0.10;0.10;;;7.70;99.90;;;;;;5006584;28;20120;-64
2023/11/15 03:56:26;;;;;;;0.20;0.10;;;7.70;99.90;;;;;;5004704;28;20128;-65
2023/11/15 03:58:52;;;;;;;0.20;0.15;;;7.70;99.90;;;;;;5003085;28;20048;-64
2023/11/15 04:01:17;;;;;;;0.00;0.00;;;7.70;99.90;;;;;;5003189;28;20125;-64
2023/11/15 04:03:43;;;;;;;0.20;0.15;;;7.60;99.90;;;;;;5006515;28;20040;-64
2023/11/15 04:06:09;;;;;;;3.35;0.43;;;7.60;99.90;;;;;;4996253;28;20129;-65
2023/11/15 04:08:36;;;;;;;1.70;0.20;;;7.60;99.90;;;;;;5004991;28;20081;-64
2023/11/15 04:11:02;;;;;;;3.40;0.15;;;7.50;99.90;;;;;;5033944;28;20120;-64
2023/11/15 04:13:27;;;;;;;0.10;0.00;;;7.50;99.90;;;;;;5009029;28;20041;-63
2023/11/15 04:15:54;;;;;;;0.00;0.00;;;7.50;99.90;;;;;;5003840;28;20034;-64
2023/11/15 04:18:20;;;;;;;0.40;0.10;;;7.40;99.90;;;;;;5002192;28;20455;-64
2023/11/15 04:20:46;;;;;;;0.00;0.00;;;7.40;99.90;;;;;;5000645;28;20037;-64
2023/11/15 04:23:12;;;;;;;0.20;0.10;;;7.40;99.90;;;;;;5007650;28;20653;-63
2023/11/15 04:25:39;;;;;;;0.43;0.10;;;7.30;99.90;;;;;;4996505;28;20121;-64
2023/11/15 04:28:06;;;;;;;0.17;0.08;;;7.30;99.90;;;;;;5005625;28;20544;-64
2023/11/15 04:30:32;;;;;;;0.03;0.00;;;7.30;99.90;;;;;;5004689;28;20471;-63
2023/11/15 04:32:59;;;;;;;0.00;0.00;;;7.20;99.90;;;;;;5037876;28;20042;-64
2023/11/15 04:35:24;;;;;;;0.15;0.00;;;7.20;99.90;;;;;;4997934;28;20097;-64
2023/11/15 04:37:50;;;;;;;0.43;0.10;;;7.20;99.90;;;;;;5004253;28;20073;-65
2023/11/15 04:40:18;;;;;;;0.00;0.00;;;7.10;99.90;;;;;;5005804;28;20042;-64
2023/11/15 04:42:43;;;;;;;0.10;0.10;;;7.10;99.90;;;;;;5002893;28;20041;-64
2023/11/15 04:45:09;;;;;;;0.00;0.00;;;7.10;99.90;;;;;;5000972;28;20038;-64
2023/11/15 04:47:35;;;;;;;0.45;0.10;;;7.10;99.90;;;;;;5002179;28;20093;-64
2023/11/15 04:50:01;;;;;;;0.10;0.08;;;7.10;99.90;;;;;;5014355;28;20057;-64
2023/11/15 04:52:27;;;;;;;0.20;0.10;;;7.10;99.90;;;;;;5007189;28;20037;-63
2023/11/15 04:54:54;;;;;;;0.10;0.00;;;7.10;99.90;;;;;;5008613;28;20051;-64
2023/11/15 04:57:23;;;;;;;0.32;0.20;;;7.10;99.90;;;;;;5008157;28;20137;-63
2023/11/15 04:59:51;;;;;;;0.08;0.00;;;7.10;99.90;;;;;;5009738;28;20045;-63
2023/11/15 05:02:17;;;;;;;0.22;0.10;;;7.10;99.90;;;;;;5005883;28;20398;-64
2023/11/15 05:04:43;;;;;;;0.20;0.10;;;7.10;99.90;;;;;;5007895;28;20141;-65
2023/11/15 05:07:11;;;;;;;0.32;0.00;;;7.10;99.90;;;;;;5009779;28;20057;-63
2023/11/15 05:09:37;;;;;;;0.00;0.00;;;7.10;99.90;;;;;;5012549;28;20437;-63
2023/11/15 05:12:03;;;;;;;0.10;0.10;;;7.10;99.90;;;;;;5036762;28;20053;-63
2023/11/15 05:14:29;;;;;;;0.00;0.00;;;7.20;99.90;;;;;;5009961;28;20108;-63
2023/11/15 05:16:55;;;;;;;0.15;0.05;;;7.20;99.90;;;;;;5005992;28;20346;-63
2023/11/15 05:19:20;;;;;;;0.40;0.20;;;7.20;99.90;;;;;;5011562;28;20034;-63
2023/11/15 05:21:46;;;;;;;0.10;0.00;;;7.10;99.90;;;;;;4998553;28;20036;-63
2023/11/15 05:24:12;;;;;;;1.00;0.32;;;7.10;99.90;;;;;;5012588;28;20038;-64
2023/11/15 05:26:37;;;;;;;0.05;0.00;;;7.00;99.90;;;;;;5006383;28;20343;-64
2023/11/15 05:29:03;;;;;;;0.88;0.20;;;7.00;99.90;;;;;;5004559;28;20046;-63
2023/11/15 05:31:29;;;;;;;0.52;0.32;;;7.00;99.90;;;;;;5007475;28;20109;-63
2023/11/15 05:33:55;;;;;;;0.30;0.20;;;7.00;99.90;;;;;;5007406;28;20125;-63
2023/11/15 05:36:22;;;;;;;0.10;0.10;;;7.00;99.90;;;;;;5009262;28;20139;-64
2023/11/15 05:38:48;;;;;;;0.00;0.00;;;7.00;99.90;;;;;;5042916;28;20038;-64
2023/11/15 05:41:14;;;;;;;1.83;0.30;;;7.00;99.90;;;;;;5032501;28;20042;-63
2023/11/15 05:43:41;;;;;;;3.80;0.52;;;7.00;99.90;;;;;;5011955;28;20037;-63
2023/11/15 05:46:07;;;;;;;0.38;0.25;;;7.10;99.90;;;;;;5036835;28;20532;-64
2023/11/15 05:48:33;;;;;;;0.43;0.15;;;7.00;99.90;;;;;;5004213;28;20037;-63
2023/11/15 05:51:00;;;;;;;0.57;0.10;;;7.10;99.90;;;;;;5008401;28;20034;-63
2023/11/15 05:53:26;;;;;;;0.52;0.32;;;7.10;99.90;;;;;;5011230;28;20046;-64
2023/11/15 05:55:52;;;;;;;0.45;0.10;;;7.10;99.90;;;;;;5040129;28;20163;-63
2023/11/15 05:58:18;;;;;;;2.33;0.10;;;7.10;99.90;;;;;;5013358;28;20036;-64
2023/11/15 06:00:43;;;;;;;0.17;0.17;;;7.20;99.90;;;;;;5041864;28;20467;-64
2023/11/15 06:03:10;;;;;;;0.28;0.10;;;7.20;99.90;;;;;;5039888;28;20102;-63
2023/11/15 06:05:35;;;;;;;3.20;0.35;;;7.20;99.90;;;;;;5013771;28;20050;-64
2023/11/15 06:08:01;;;;;;;0.90;0.08;;;7.20;99.90;;;;;;5006937;28;20104;-64
2023/11/15 06:10:27;;;;;;;1.25;0.22;;;7.30;99.90;;;;;;5007265;28;20045;-64
2023/11/15 06:12:56;;;;;;;0.22;0.00;;;7.30;99.90;;;;;;5011573;28;20038;-64
2023/11/15 06:15:22;;;;;;;0.00;0.00;;;7.30;99.90;;;;;;5007602;28;20046;-63
2023/11/15 06:17:51;;;;;;;0.80;0.10;;;7.30;99.90;;;;;;5010211;28;20037;-64
2023/11/15 06:20:18;;;;;;;0.32;0.10;;;7.30;99.90;;;;;;5010129;28;20034;-65
2023/11/15 06:22:45;;;;;;;0.55;0.15;;;7.30;99.90;;;;;;5008631;28;20033;-63
2023/11/15 06:25:18;;;;;;;0.30;0.10;;;7.40;99.90;;;;;;5005933;28;20081;-63
2023/11/15 06:27:44;;;;;;;1.85;0.20;;;7.40;99.90;;;;;;5010668;28;20046;-63
2023/11/15 06:30:12;;;;;;;0.35;0.13;;;7.40;99.90;;;;;;5001587;28;20042;-64
2023/11/15 06:32:38;;;;;;;0.03;0.03;;;7.40;99.90;;;;;;5005287;28;20042;-63
2023/11/15 06:35:04;;;;;;;0.73;0.08;;;7.50;99.90;;;;;;5007528;28;20049;-64
2023/11/15 06:37:33;;;;;;;63.05;40.92;;;7.50;99.90;;;;;;5010479;28;20041;-63
2023/11/15 06:40:00;;;;;;;2.53;1.65;;;7.50;99.90;;;;;;5002650;28;20053;-64
2023/11/15 06:42:25;;;;;;;1.30;0.60;;;7.50;99.90;;;;;;5012307;28;20053;-64
2023/11/15 06:44:51;;;;;;;7.50;3.42;;;7.50;99.90;;;;;;5009519;28;20049;-63
2023/11/15 06:47:18;;;;;;;3.20;1.23;;;7.50;99.90;;;;;;5040122;28;20035;-63
2023/11/15 06:49:44;;;;;;;2.55;0.77;;;7.50;99.90;;;;;;5015086;28;20053;-63
2023/11/15 06:52:10;;;;;;;2.63;0.47;;;7.50;99.90;;;;;;5010383;28;20048;-64
2023/11/15 06:54:36;;;;;;;0.65;0.32;;;7.50;99.90;;;;;;5037698;28;20046;-64
2023/11/15 06:57:03;;;;;;;0.55;0.30;;;7.50;99.90;;;;;;5001735;28;20197;-64
2023/11/15 06:59:29;;;;;;;0.80;0.20;;;7.50;99.90;;;;;;5002877;28;20030;-64
2023/11/15 07:01:55;;;;;;;0.20;0.20;;;7.50;99.90;;;;;;5004988;28;20263;-64
2023/11/15 07:04:22;;;;;;;0.88;0.57;;;7.50;99.90;;;;;;5008070;28;20430;-63
2023/11/15 07:06:48;;;;;;;0.52;0.52;;;7.50;99.90;;;;;;5010705;28;20081;-65
2023/11/15 07:09:15;;;;;;;0.43;0.17;;;7.50;99.90;;;;;;5004944;28;20057;-64
2023/11/15 07:11:49;;;;;;;1.20;0.40;;;7.50;99.90;;;;;;5009263;28;20045;-63
2023/11/15 07:14:16;;;;;;;0.20;0.17;;;7.50;99.90;;;;;;5011147;28;20037;-64
2023/11/15 07:16:52;;;;;;;0.40;0.30;;;7.50;99.90;;;;;;4998741;28;20077;-63
2023/11/15 07:19:18;;;;;;;6.22;0.38;;;7.50;99.90;;;;;;5005364;28;20037;-65
2023/11/15 07:21:44;;;;;;;0.45;0.35;;;7.60;99.90;;;;;;5007999;28;20042;-65
2023/11/15 07:24:10;;;;;;;0.43;0.25;;;7.60;99.90;;;;;;5006847;28;20060;-63
2023/11/15 07:26:36;;;;;;;0.55;0.25;;;7.60;99.90;;;;;;5008110;28;20158;-65
2023/11/15 07:29:06;;;;;;;1.15;0.43;;;7.60;99.90;;;;;;5006875;28;20038;-64
2023/11/15 07:31:32;;;;;;;0.30;0.13;;;7.60;99.90;;;;;;5007652;28;20049;-64
2023/11/15 07:33:59;;;;;;;0.57;0.17;;;7.60;99.90;;;;;;5007673;28;20038;-63
2023/11/15 07:36:27;;;;;;;0.22;0.10;;;7.70;99.90;;;;;;5008457;28;20233;-65
2023/11/15 07:38:54;;;;;;;0.75;0.35;;;7.70;99.90;;;;;;5008049;28;20056;-64
2023/11/15 07:41:20;;;;;;;1.33;0.57;;;7.80;99.90;;;;;;5010185;28;20046;-64
2023/11/15 07:43:46;;;;;;;0.28;0.20;;;7.80;99.90;;;;;;5001885;28;20603;-65
2023/11/15 07:46:13;;;;;;;0.45;0.28;;;7.90;99.90;;;;;;5003392;28;21369;-64
2023/11/15 07:48:40;;;;;;;0.35;0.10;;;7.90;99.90;;;;;;5008253;28;20042;-65
2023/11/15 07:51:08;;;;;;;0.13;0.13;;;8.00;99.90;;;;;;5007534;28;20049;-64
2023/11/15 07:53:33;;;;;;;1.92;0.30;;;8.10;99.90;;;;;;5005457;28;20117;-65
2023/11/15 07:55:59;;;;;;;1.27;0.50;;;8.10;99.90;;;;;;5010767;28;20148;-64
2023/11/15 07:58:26;;;;;;;0.35;0.25;;;8.20;99.90;;;;;;5004380;28;20051;-64
2023/11/15 08:00:52;;;;;;;0.85;0.30;;;8.30;99.90;;;;;;5005613;28;20455;-64
2023/11/15 08:03:19;;;;;;;0.90;0.32;;;8.40;99.90;;;;;;5005791;28;20108;-64
2023/11/15 08:05:47;;;;;;;0.68;0.38;;;8.50;99.90;;;;;;5005724;28;20046;-64
2023/11/15 08:08:14;;;;;;;0.50;0.30;;;8.50;99.90;;;;;;5006768;28;20109;-64
2023/11/15 08:10:46;;;;;;;2.22;0.75;;;8.60;99.90;;;;;;5009928;28;20454;-65
2023/11/15 08:13:13;;;;;;;1.15;0.43;;;8.60;99.90;;;;;;5004820;28;20037;-64
2023/11/15 08:15:39;;;;;;;1.05;0.20;;;8.60;99.90;;;;;;5003612;28;20046;-65
2023/11/15 08:18:05;;;;;;;0.60;0.30;;;8.60;99.90;;;;;;5008485;28;20091;-65
2023/11/15 08:20:31;;;;;;;3.97;0.75;;;8.70;99.90;;;;;;5036433;28;20075;-64
2023/11/15 08:22:57;;;;;;;0.63;0.22;;;8.80;99.90;;;;;;5005215;28;20083;-64
2023/11/15 08:25:24;;;;;;;4.63;0.30;;;8.80;99.90;;;;;;5004290;28;20030;-65
2023/11/15 08:27:51;;;;;;;1.45;0.30;;;8.70;99.90;;;;;;5007114;28;20042;-64
2023/11/15 08:30:17;;;;;;;1.27;0.22;;;8.90;99.90;;;;;;5005383;28;20352;-65
2023/11/15 08:32:47;;;;;;;1.33;0.47;;;8.90;99.90;;;;;;5006618;28;20042;-64
2023/11/15 08:35:15;;;;;;;1.85;0.50;;;9.00;99.90;;;;;;5007129;28;20046;-64
2023/11/15 08:37:41;;;;;;;1.67;0.50;;;9.10;99.90;;;;;;5006724;28;20050;-65
2023/11/15 08:40:10;;;;;;;0.43;0.28;;;9.10;99.90;;;;;;5006379;28;20391;-65
2023/11/15 08:42:37;;;;;;;0.70;0.32;;;9.20;99.90;;;;;;5003025;28;20070;-67
2023/11/15 08:45:08;;;;;;;1.40;0.55;;;9.20;99.90;;;;;;5004625;28;20050;-65
2023/11/15 08:47:36;;;;;;;0.75;0.22;;;9.30;99.90;;;;;;5007285;28;20042;-65
2023/11/15 08:50:03;;;;;;;0.75;0.20;;;9.30;99.90;;;;;;5003556;28;20046;-65
2023/11/15 08:52:29;;;;;;;0.40;0.30;;;9.40;99.90;;;;;;5029168;28;20050;-67
2023/11/15 08:54:56;;;;;;;3.05;0.45;;;9.30;99.90;;;;;;5032592;28;20042;-66
2023/11/15 08:57:22;;;;;;;0.38;0.20;;;9.40;99.90;;;;;;5036038;28;20078;-66
2023/11/15 08:59:47;;;;;;;1.20;0.25;;;9.30;99.90;;;;;;5010433;28;20131;-66
2023/11/15 09:02:16;;;;;;;0.45;0.20;;;9.40;99.90;;;;;;5035498;28;20037;-66
2023/11/15 09:04:42;;;;;;;1.20;0.52;;;9.40;99.90;;;;;;5005585;28;20037;-65
2023/11/15 09:07:08;;;;;;;1.23;0.47;;;9.40;99.90;;;;;;5039620;28;20045;-65
2023/11/15 09:09:41;;;;;;;0.82;0.43;;;9.40;99.90;;;;;;5006030;28;20109;-65
2023/11/15 09:12:08;;;;;;;2.85;0.68;;;9.50;99.90;;;;;;4998716;28;20034;-65
2023/11/15 09:14:35;;;;;;;1.10;0.45;;;9.50;99.90;;;;;;5004019;28;20053;-64
2023/11/15 09:17:05;;;;;;;0.35;0.25;;;9.50;99.90;;;;;;5036364;28;20077;-65
2023/11/15 09:19:34;;;;;;;0.77;0.30;;;9.60;99.90;;;;;;5038770;28;20323;-65
2023/11/15 09:22:03;;;;;;;0.93;0.28;;;9.60;99.90;;;;;;5007398;28;20049;-64
2023/11/15 09:24:29;;;;;;;0.95;0.20;;;9.60;99.90;;;;;;5003159;28;20518;-65
2023/11/15 09:26:58;;;;;;;1.08;0.28;;;9.60;99.90;;;;;;5004717;28;20046;-65
2023/11/15 09:29:24;;;;;;;0.80;0.32;;;9.70;99.90;;;;;;5008005;28;20421;-65
2023/11/15 09:31:50;;;;;;;0.75;0.30;;;9.70;99.90;;;;;;5004535;28;20037;-65
2023/11/15 09:34:16;;;;;;;0.40;0.32;;;9.70;99.90;;;;;;5009287;28;20045;-64
2023/11/15 09:36:42;;;;;;;0.52;0.20;;;9.80;99.90;;;;;;5004683;28;20034;-64
2023/11/15 09:39:09;;;;;;;1.13;0.47;;;9.80;99.90;;;;;;5009739;28;20117;-65
2023/11/15 09:41:36;;;;;;;0.38;0.10;;;9.80;99.90;;;;;;5000648;28;20042;-65
2023/11/15 09:44:11;;;;;;;0.57;0.20;;;9.80;99.90;;;;;;5019732;28;20041;-65
2023/11/15 09:46:37;;;;;;;0.25;0.10;;;9.80;99.90;;;;;;5006397;28;20046;-64
2023/11/15 09:49:05;;;;;;;0.38;0.13;;;9.80;99.90;;;;;;5007991;28;20073;-64
2023/11/15 09:51:34;;;;;;;0.73;0.20;;;9.80;99.90;;;;;;5004763;28;20378;-64
2023/11/15 09:54:06;;;;;;;3.40;0.30;;;9.90;99.90;;;;;;5041379;28;20080;-65
2023/11/15 09:56:32;;;;;;;0.38;0.20;;;9.90;99.90;;;;;;5006020;28;20050;-64
2023/11/15 09:58:58;;;;;;;0.00;0.00;;;10.00;99.90;;;;;;5005902;28;20078;-66
2023/11/15 10:01:26;;;;;;;0.30;0.10;;;10.00;99.90;;;;;;5041371;28;20084;-66
2023/11/15 10:03:52;;;;;;;0.47;0.28;;;10.00;99.90;;;;;;5006531;28;20486;-64
2023/11/15 10:06:18;;;;;;;1.00;0.13;;;10.00;99.90;;;;;;5009781;28;20447;-65
2023/11/15 10:08:54;;;;;;;0.22;0.10;;;10.00;99.90;;;;;;5007894;28;20049;-65
2023/11/15 10:11:21;;;;;;;7.03;0.15;;;9.90;99.90;;;;;;5010527;28;20069;-67
2023/11/15 10:13:51;;;;;;;0.22;0.10;;;9.90;99.90;;;;;;5042512;28;20042;-67
2023/11/15 10:16:30;;;;;;;0.00;0.00;;;9.90;99.90;;;;;;5011626;28;20101;-67
2023/11/15 10:18:57;;;;;;;0.38;0.20;;;9.90;99.90;;;;;;5037610;28;20627;-68
2023/11/15 10:21:24;;;;;;;0.00;0.00;;;9.90;99.90;;;;;;5037845;28;20042;-69
2023/11/15 10:24:09;;;;;;;1.02;0.20;;;9.90;99.90;;;;;;5041376;28;20064;-68
2023/11/15 10:26:38;;;;;;;1.50;0.20;;;9.90;99.90;;;;;;5030518;28;20091;-68
2023/11/15 10:29:12;;;;;;;0.13;0.10;;;10.00;99.90;;;;;;5042676;28;20121;-66
2023/11/15 10:31:53;;;;;;;0.00;0.00;;;10.00;99.90;;;;;;5008232;28;20490;-67
2023/11/15 10:34:29;;;;;;;0.45;0.10;;;10.00;99.90;;;;;;5059594;28;20526;-67
2023/11/15 10:37:04;;;;;;;0.05;0.00;;;10.00;99.90;;;;;;5037667;28;20451;-67
2023/11/15 10:39:32;;;;;;;0.10;0.00;;;10.00;99.90;;;;;;5005665;28;20049;-66
2023/11/15 10:41:59;;;;;;;2.53;0.13;;;10.00;99.90;;;;;;5035220;28;20107;-65
2023/11/15 10:44:25;;;;;;;0.05;0.05;;;10.10;99.90;;;;;;5004615;28;20052;-66
2023/11/15 10:46:51;;;;;;;0.47;0.00;;;10.20;99.90;;;;;;5004365;28;20038;-66
2023/11/15 10:49:19;;;;;;;0.88;0.30;;;10.30;99.90;;;;;;5014267;28;20142;-66
2023/11/15 10:51:48;;;;;;;1.60;0.28;;;10.40;99.90;;;;;;5010630;28;20113;-66
2023/11/15 10:54:15;;;;;;;0.70;0.25;;;10.40;99.90;;;;;;5000287;28;20038;-66
2023/11/15 10:56:43;;;;;;;0.05;0.05;;;10.50;99.90;;;;;;5005802;28;20046;-68
2023/11/15 10:59:13;;;;;;;0.25;0.00;;;10.50;99.90;;;;;;5004184;28;20104;-68
2023/11/15 11:01:41;;;;;;;0.00;0.00;;;10.50;99.90;;;;;;5038507;28;20617;-68
2023/11/15 11:04:10;;;;;;;4.28;0.20;;;10.50;99.90;;;;;;5035949;28;20121;-68
2023/11/15 11:06:51;;;;;;;6.15;0.75;;;10.60;99.90;;;;;;5036194;28;20116;-68
2023/11/15 11:09:25;;;;;;;4.03;0.10;;;10.90;99.90;;;;;;5052950;28;20405;-68
2023/11/15 11:11:54;;;;;;;;;;;11.00;99.90;;;;;;5015877;28;20046;-69
2023/11/15 11:14:25;;;;;;;0.30;0.10;;;11.00;99.90;;;;;;5048530;28;19924;-68
2023/11/15 11:16:52;;;;;;;0.57;0.20;;;10.80;99.90;;;;;;5012807;28;20053;-69
2023/11/15 11:19:22;;;;;;;0.00;0.00;;;10.60;99.90;;;;;;5048300;28;20100;-69
2023/11/15 11:22:06;;;;;;;0.45;0.20;;;10.40;99.90;;;;;;5045788;28;20482;-68
2023/11/15 11:24:48;;;;;;;2.00;0.00;;;10.20;99.90;;;;;;5044741;28;20072;-67
2023/11/15 11:27:14;;;;;;;0.45;0.10;;;10.10;99.90;;;;;;5016210;28;20048;-68
2023/11/15 11:29:49;;;;;;;0.08;0.00;;;10.10;99.90;;;;;;5052618;28;20041;-66
2023/11/15 11:32:31;;;;;;;0.05;0.00;;;10.10;99.90;;;;;;5048506;28;20038;-67
2023/11/15 11:35:13;;;;;;;2.20;0.00;;;10.20;99.90;;;;;;5015852;28;20045;-65
2023/11/15 11:37:50;;;;;;;0.52;0.00;;;10.20;99.90;;;;;;5007442;28;20049;-65
2023/11/15 11:40:31;;;;;;;0.00;0.00;;;10.30;99.90;;;;;;5009404;28;20030;-65
2023/11/15 11:43:21;;;;;;;0.00;0.00;;;10.30;99.90;;;;;;4998920;28;20076;-65
2023/11/15 11:45:53;;;;;;;0.05;0.00;;;10.40;99.90;;;;;;5001560;28;20161;-65
2023/11/15 11:48:26;;;;;;;1.60;0.10;;;10.70;99.90;;;;;;5010985;28;20124;-65
2023/11/15 11:51:06;;;;;;;0.22;0.13;;;10.70;99.90;;;;;;5039905;28;20512;-67
2023/11/15 11:53:38;;;;;;;0.20;0.10;;;10.80;99.90;;;;;;5004850;28;20089;-66
2023/11/15 11:56:09;;;;;;;0.77;0.05;;;11.00;99.90;;;;;;5001463;28;20534;-67
2023/11/15 11:58:36;;;;;;;1.05;0.25;;;11.10;99.90;;;;;;5008713;28;20042;-65
2023/11/15 12:01:06;;;;;;;4.00;0.57;;;11.20;99.90;;;;;;5003929;28;20430;-65
2023/11/15 12:03:35;;;;;;;2.72;0.40;;;11.30;99.90;;;;;;5004477;28;20050;-64
2023/11/15 12:06:09;;;;;;;1.88;0.47;;;11.40;99.90;;;;;;5011082;28;20046;-65
2023/11/15 12:08:39;;;;;;;0.10;0.10;;;11.40;99.90;;;;;;5009523;28;20042;-64
2023/11/15 12:11:07;;;;;;;4.22;0.38;;;11.40;99.90;;;;;;5003797;28;20054;-64
2023/11/15 12:13:47;;;;;;;2.35;0.30;;;11.40;99.90;;;;;;5009350;28;20041;-64
2023/11/15 12:16:20;;;;;;;0.30;0.10;;;11.40;99.90;;;;;;5038526;28;20445;-65
2023/11/15 12:19:24;;;;;;;1.25;0.28;;;11.40;99.90;;;;;;5011592;28;20116;-64
2023/11/15 12:21:53;;;;;;;3.72;0.38;;;11.50;99.90;;;;;;5026275;28;20050;-66
2023/11/15 12:24:23;;;;;;;2.65;0.43;;;11.60;99.90;;;;;;5013666;28;20481;-65
2023/11/15 12:26:48;;;;;;;2.22;0.38;;;11.60;99.90;;;;;;5009286;28;20056;-65
2023/11/15 12:29:22;;;;;;;1.65;0.32;;;11.60;99.90;;;;;;5006104;28;20046;-64
2023/11/15 12:31:50;;;;;;;5.60;0.65;;;11.60;99.90;;;;;;5001120;28;20084;-65
2023/11/15 12:34:17;;;;;;;3.90;0.52;;;11.60;99.90;;;;;;5007987;28;20057;-64
2023/11/15 12:36:44;;;;;;;1.35;0.40;;;11.50;99.90;;;;;;5003152;28;20086;-64
2023/11/15 12:39:13;;;;;;;3.58;0.75;;;11.50;99.90;;;;;;5036296;28;20037;-64
2023/11/15 12:41:49;;;;;;;2.33;0.08;;;11.40;99.90;;;;;;5002543;28;20045;-66
2023/11/15 12:44:16;;;;;;;5.53;0.60;;;11.30;99.90;;;;;;5006125;28;20040;-65
2023/11/15 12:46:43;;;;;;;0.90;0.20;;;11.30;99.90;;;;;;5019954;28;20128;-65
2023/11/15 12:49:14;;;;;;;1.10;0.00;;;11.20;99.90;;;;;;5004843;28;20034;-65
2023/11/15 12:51:49;;;;;;;1.52;0.25;;;11.10;99.90;;;;;;5007934;28;20394;-65
2023/11/15 12:54:16;;;;;;;1.08;0.43;;;11.00;99.90;;;;;;5009297;28;20096;-65
2023/11/15 12:56:42;;;;;;;3.10;0.30;;;10.90;99.90;;;;;;5003998;28;20133;-66
2023/11/15 12:59:14;;;;;;;2.67;0.28;;;10.80;99.90;;;;;;5042503;28;20140;-66